Air Park, Nebraska
Current Conditions -  °F | °C
As of 11:54 AM on Saturday 20 Dec 2014 (Local Time) from KLNK Reporting Station
Haze Haze  
Wind Chill:   Ceiling: 300
Heat Index:   Visibility: 4mi
Dew Point: -1°   Wind: 3mph
Humidity: 92%   Direction: 230°SW
Pressure: 30.11"   Gusts: NA
Location:  40.8731°N, 96.8015°W
Report Text: KLNK 201754Z 23003KT 4SM BR OVC003 01/M01 A3011 RMK AO2 SLP206 T00061006 10006 20000 58003
Loading
Personal Weather Stations






























Interactive Weather Map New forecast layout! Learn more

10-Day Weather Forecast

Advertisements
Track Severe Weather on mobile